logo
Rechercher aéroport 
image banner adimage banner adimage banner ad
image banner ad

2O7 - Independence

Situé à Independence, United States

ICAO - 2O7, IATA -

Données fournies par Airmate  

Information générale

Coordonnées: N36°48'59" W118°12'18"
Élévation : 3908 feet MSL.
Variation magnétique : 15° East
Voir autres Aéroports à California

Données opérationnelles

Special qualification required
Heure actuelle UTC:
Heure actuelle locale:
Météo à : KBIH - Bishop ( 63 km )
METAR: KBIH 281256Z AUTO 00000KT 10SM CLR 11/01 A3015 RMK AO2 SLP168 T01110011
TAF: KBIH 281120Z 2812/2912 32006KT P6SM SKC FM281900 17012G20KT P6SM FEW120 FM282300 24011KT P6SM FEW120 FM290300 VRB06KT P6SM SKC
Voir NOTAMs / SUP AIP / TFR affectant cet aéroport [VIEW]
Fréquences de communication: [VIEW]

Pistes:

Identifiant RWYQFULongueur (ft)Largeur (ft)SurfaceLDA (ft)
0568°149830EARTH
23248°149830EARTH
14157°353360ASPH
32337°353360ASPH

Coordonnées de l'aéroport

Adresse: Independence United States

Vue satellite de 2O7